Terminal Aerodrome Forecast
Issued by NWS Springfield, MO

Home | Current Version | Previous Version | Text Only | Print | Product List | Glossary On
Versions: 1 2 3 4 5 6 7 8 9 10 11 12 13 14 15 16 17 18 19 20 21 22
772
FTUS43 KSGF 270325 AAB
TAFSGF
TAF AMD
KSGF 270325Z 2703/2724 10010KT P6SM VCSH SCT070 BKN100
      TEMPO 2703/2707 5SM TSRA BR BKN050CB
     FM270700 09007KT P6SM SCT120
     FM272000 15005KT P6SM FEW200=

USA.gov is the U.S. government's official web portal to all federal, state and local government web resources and services.